This is the latest recevied weather packets stored in our database for station/object K3RTA-2. If no packets are shown the sender has not sent any weather packets the latest 10 day(s).
| Time | Temp. | Humidity | Pressure | Rain* | Wind** | Luminosity | Snow |
|---|---|---|---|---|---|---|---|
| 1778001904 | 27.78° C | 45% | 1012.7 hPa | 0 mm | - | - | - |
| 1777996804 | 26.67° C | 50% | 1013.4 hPa | 0 mm | - | - | - |
| 1777989905 | 23.33° C | 59% | 1013.4 hPa | 0 mm | - | - | - |
| 1777989305 | 23.33° C | 58% | 1013.4 hPa | 0 mm | - | - | - |
| 1777988704 | 22.78° C | 58% | 1013.4 hPa | 0 mm | - | - | - |
| 1777988105 | 22.22° C | 61% | 1013.4 hPa | 0 mm | - | - | - |
| 1777986004 | 21.11° C | 63% | 1013.4 hPa | 0 mm | - | - | - |
| 1777985704 | 21.11° C | 65% | 1013.3 hPa | 0 mm | - | - | - |
| 1777985404 | 21.11° C | 64% | 1013.3 hPa | 0 mm | - | - | - |
| 1777984504 | 20.56° C | 67% | 1013.4 hPa | 0 mm | - | - | - |
| 1777982705 | 19.44° C | 72% | 1013.3 hPa | 0 mm | - | - | - |
| 1777978504 | 16.67° C | 77% | 1013.1 hPa | 0 mm | - | - | - |
| 1777978204 | 16.67° C | 78% | 1013.2 hPa | 0 mm | - | - | - |
| 1777977904 | 16.67° C | 78% | 1013.2 hPa | 0 mm | - | - | - |
| 1777976405 | 16.67° C | 78% | 1012.9 hPa | 0 mm | - | - | - |
| 1777974604 | 16.67° C | 77% | 1012.7 hPa | 0 mm | - | - | - |
| 1777973104 | 16.67° C | 77% | 1012.7 hPa | 0 mm | - | - | - |
| 1777972505 | 16.67° C | 77% | 1012.6 hPa | 0 mm | - | - | - |
| 1777970105 | 16.67° C | 78% | 1012.3 hPa | 0 mm | - | - | - |
| 1777966205 | 15.56° C | 82% | 1012.4 hPa | 0 mm | - | - | - |
| 1777965904 | 16.11° C | 82% | 1012.4 hPa | 0 mm | - | - | - |
| 1777965005 | 15.56° C | 83% | 1012.3 hPa | 0 mm | - | - | - |
| 1777963804 | 16.11° C | 83% | 1012.2 hPa | 0 mm | - | - | - |
| 1777962904 | 16.11° C | 83% | 1012.2 hPa | 0 mm | - | - | - |
| 1777961705 | 16.11° C | 83% | 1012 hPa | 0 mm | - | - | - |
* Rain latest hour (hover to see other rain measurements)
** Current wind speed in m/s (hover to see current wind gust speed)